createdAt,value
2023-03-23T15:57:57.027Z,1.77
2023-03-23T16:00:29.093Z,1.60
2023-03-23T16:03:04.428Z,2.05
2023-03-23T16:05:33.703Z,1.90
2023-03-23T16:08:00.971Z,1.65
2023-03-23T16:10:29.305Z,1.73
2023-03-23T16:12:56.584Z,1.50
2023-03-23T16:15:24.540Z,1.48
2023-03-23T16:17:52.519Z,1.63
2023-03-23T16:20:23.317Z,2.03
2023-03-23T16:22:52.103Z,1.63
2023-03-23T16:25:20.565Z,1.77
2023-03-23T16:27:52.455Z,1.80
2023-03-23T16:30:28.398Z,2.38
2023-03-23T16:32:57.818Z,1.98
2023-03-23T16:35:26.498Z,1.63
2023-03-23T16:38:08.181Z,1.33
2023-03-23T16:40:37.734Z,1.65
2023-03-23T16:43:09.293Z,1.40
2023-03-23T16:45:43.219Z,1.50
2023-03-23T16:48:37.458Z,1.40
2023-03-23T16:51:04.674Z,1.73
2023-03-23T16:53:32.571Z,2.55
2023-03-23T16:56:00.530Z,3.13
2023-03-23T16:58:28.664Z,2.53
2023-03-23T17:00:56.477Z,2.45
2023-03-23T17:03:24.643Z,2.60
2023-03-23T17:05:52.935Z,2.58
2023-03-23T17:08:21.315Z,2.28
2023-03-23T17:10:54.483Z,2.35
2023-03-23T17:13:22.634Z,2.60
2023-03-23T17:15:53.809Z,2.42
2023-03-23T17:18:24.131Z,2.30
2023-03-23T17:20:53.400Z,2.13
2023-03-23T17:23:21.264Z,1.95
2023-03-23T17:25:54.691Z,2.15
2023-03-23T17:28:27.530Z,2.08
2023-03-23T17:30:54.514Z,2.47
2023-03-23T17:33:27.673Z,2.28
2023-03-23T17:35:55.081Z,2.10
2023-03-23T17:38:22.527Z,1.98
2023-03-23T17:41:00.212Z,2.20
2023-03-23T17:43:28.563Z,1.80
2023-03-23T17:45:56.565Z,1.98
2023-03-23T17:48:24.599Z,2.15
2023-03-23T17:50:59.964Z,2.78
2023-03-23T17:53:30.813Z,2.20
2023-03-23T18:01:42.704Z,2.00
2023-03-23T18:04:10.627Z,1.90
2023-03-23T18:06:43.874Z,2.47
2023-03-23T18:09:10.894Z,2.10
2023-03-23T18:11:44.479Z,1.60
2023-03-23T18:14:16.863Z,2.20
2023-03-23T18:16:48.682Z,2.25
2023-03-23T18:19:16.862Z,2.10
2023-03-23T18:21:46.821Z,1.77
2023-03-23T18:24:14.678Z,2.05
2023-03-23T18:26:42.560Z,2.42
2023-03-23T18:29:14.556Z,2.47
2023-03-23T18:31:44.116Z,2.25
2023-03-23T18:34:17.775Z,2.72
2023-03-23T18:36:44.467Z,3.10
2023-03-23T18:39:12.594Z,3.08
2023-03-23T18:42:05.493Z,2.38
2023-03-23T18:44:37.639Z,1.90
2023-03-23T18:47:30.776Z,2.00
2023-03-23T18:49:59.624Z,1.70
2023-03-23T18:52:30.144Z,1.70
2023-03-23T18:54:59.194Z,1.67
2023-03-23T18:57:26.739Z,1.77
2023-03-23T19:03:13.757Z,2.05
2023-03-23T19:05:42.310Z,1.80
2023-03-23T19:08:10.702Z,1.70
2023-03-23T19:10:43.369Z,1.92
2023-03-23T19:13:11.254Z,2.10
2023-03-23T19:15:45.168Z,2.40
2023-03-23T19:18:12.502Z,2.58
2023-03-23T19:21:12.435Z,2.20
2023-03-23T19:23:32.612Z,2.55
2023-03-23T19:26:00.550Z,2.80
2023-03-23T19:30:59.100Z,2.80
2023-03-23T19:33:26.781Z,2.63
2023-03-23T19:36:05.893Z,2.47
2023-03-23T19:38:42.497Z,2.58
2023-03-23T19:41:11.020Z,2.50
2023-03-23T19:44:28.902Z,2.10
2023-03-23T19:47:13.842Z,2.00
2023-03-23T19:49:46.541Z,2.38
2023-03-23T19:54:46.614Z,2.25
2023-03-23T19:57:15.471Z,2.70
2023-03-23T19:59:43.038Z,2.72
2023-03-23T20:02:13.784Z,2.47
2023-03-23T20:04:41.120Z,2.78
2023-03-23T20:07:08.623Z,2.90
2023-03-23T20:09:40.971Z,2.65
2023-03-23T20:15:23.286Z,2.90
2023-03-23T20:17:53.254Z,3.05
2023-03-23T20:20:52.698Z,3.17
2023-03-23T20:23:23.052Z,3.05
2023-03-23T20:25:51.373Z,3.78
2023-03-23T20:28:23.532Z,3.30
2023-03-23T20:34:01.097Z,4.55
2023-03-23T20:39:48.853Z,3.85
2023-03-23T20:42:16.929Z,3.92
2023-03-23T20:44:44.789Z,3.80
2023-03-23T20:47:12.615Z,4.03
2023-03-23T20:50:45.723Z,3.15
2023-03-23T20:59:22.488Z,4.35
2023-03-23T21:02:18.215Z,4.13
2023-03-23T21:04:47.590Z,3.97
2023-03-23T21:07:16.166Z,3.70
2023-03-23T21:09:44.689Z,4.47
2023-03-23T21:12:16.731Z,4.10
2023-03-23T21:14:45.029Z,3.95
2023-03-23T21:17:30.903Z,4.10
2023-03-23T21:20:03.591Z,3.88
2023-03-23T21:22:30.516Z,4.78
2023-03-23T21:25:03.819Z,4.80
2023-03-23T21:27:30.854Z,4.53
2023-03-23T21:30:05.223Z,4.38
2023-03-23T21:32:32.567Z,4.43
2023-03-23T21:35:07.631Z,4.43
2023-03-23T21:37:41.264Z,4.30
2023-03-23T21:40:13.649Z,5.03
2023-03-23T21:42:42.133Z,4.90
2023-03-23T21:48:11.477Z,5.45
2023-03-23T21:50:44.226Z,5.18
2023-03-23T21:53:12.862Z,5.43
2023-03-23T21:55:43.535Z,5.60
2023-03-23T21:58:10.507Z,5.93
2023-03-23T22:00:38.708Z,5.85
2023-03-23T22:03:07.305Z,6.38
2023-03-23T22:05:45.664Z,6.47
2023-03-23T22:11:12.630Z,5.63
2023-03-23T22:16:36.747Z,6.10
2023-03-23T22:19:15.080Z,6.57
2023-03-23T22:24:35.033Z,5.82
2023-03-23T22:27:26.608Z,7.05
2023-03-23T22:29:59.639Z,6.07
2023-03-23T22:32:32.369Z,6.07
2023-03-23T22:35:26.233Z,6.10
2023-03-23T22:40:54.574Z,6.03
2023-03-23T22:43:22.738Z,5.80
2023-03-23T22:45:54.479Z,6.88
2023-03-23T22:48:24.378Z,6.38
2023-03-23T22:50:55.627Z,6.25
2023-03-23T22:53:22.637Z,6.43
2023-03-23T22:58:46.677Z,6.35
2023-03-23T23:04:15.968Z,5.82
2023-03-23T23:07:13.097Z,5.90
2023-03-23T23:09:41.914Z,5.93
2023-03-23T23:12:11.764Z,5.15
2023-03-23T23:14:39.791Z,5.25
2023-03-23T23:17:06.820Z,6.38
2023-03-23T23:19:34.525Z,5.18
2023-03-23T23:24:56.824Z,4.97
2023-03-23T23:27:24.609Z,5.15
2023-03-23T23:29:53.240Z,5.30
2023-03-23T23:32:21.120Z,5.10
2023-03-23T23:34:52.924Z,4.95
2023-03-23T23:37:20.610Z,4.65
2023-03-23T23:39:52.551Z,5.03
2023-03-23T23:42:20.554Z,4.35
2023-03-23T23:47:41.799Z,4.82
2023-03-23T23:50:20.584Z,4.35
2023-03-23T23:52:50.062Z,4.32
